createdAt,value
2022-12-26T00:09:41.889Z,2.80
2022-12-26T00:19:43.542Z,2.90
2022-12-26T00:29:47.282Z,3.10
2022-12-26T00:39:48.941Z,3.10
2022-12-26T00:50:12.161Z,3.50
2022-12-26T01:00:13.068Z,3.13
2022-12-26T01:10:15.701Z,3.00
2022-12-26T01:20:17.398Z,3.03
2022-12-26T01:30:19.079Z,3.63
2022-12-26T01:40:20.756Z,2.83
2022-12-26T01:50:37.188Z,2.87
2022-12-26T02:00:39.207Z,2.80
2022-12-26T02:10:51.526Z,2.63
2022-12-26T02:21:44.374Z,3.17
2022-12-26T02:32:11.491Z,3.10
2022-12-26T02:42:13.162Z,3.07
2022-12-26T02:52:40.054Z,2.90
2022-12-26T03:03:15.434Z,2.90
2022-12-26T03:13:25.543Z,3.03
2022-12-26T03:23:28.613Z,2.87
2022-12-26T03:33:55.726Z,2.77
2022-12-26T03:44:45.251Z,2.70
2022-12-26T03:55:20.894Z,2.90
2022-12-26T04:05:41.813Z,2.73
2022-12-26T04:16:35.623Z,3.03
2022-12-26T04:27:03.262Z,2.97
2022-12-26T04:37:29.581Z,3.17
2022-12-26T04:47:32.469Z,3.13
2022-12-26T04:57:34.097Z,3.07
2022-12-26T05:07:55.439Z,3.43
2022-12-26T05:18:16.389Z,3.93
2022-12-26T05:28:37.192Z,3.10
2022-12-26T05:38:38.882Z,3.27
2022-12-26T05:48:40.680Z,2.90
2022-12-26T05:58:42.806Z,4.30
2022-12-26T06:08:47.131Z,3.60
2022-12-26T06:18:49.636Z,3.67
2022-12-26T06:28:51.853Z,2.90
2022-12-26T06:38:54.711Z,2.70
2022-12-26T06:48:56.421Z,2.70
2022-12-26T06:59:06.257Z,2.60
2022-12-26T07:09:14.440Z,2.93
2022-12-26T07:19:16.377Z,2.60
2022-12-26T07:29:18.720Z,3.23
2022-12-26T07:39:20.340Z,3.17
2022-12-26T07:49:22.384Z,2.80
2022-12-26T07:59:24.017Z,3.17
2022-12-26T08:09:25.762Z,2.60
2022-12-26T08:19:27.864Z,3.07
2022-12-26T08:29:29.491Z,2.80
2022-12-26T08:46:10.009Z,3.07
2022-12-26T08:56:17.298Z,3.43
2022-12-26T09:06:19.003Z,2.93
2022-12-26T09:16:24.983Z,3.00
2022-12-26T09:26:27.007Z,3.40
2022-12-26T09:36:32.436Z,3.37
2022-12-26T09:46:52.194Z,3.10
2022-12-26T09:57:03.405Z,4.03
2022-12-26T10:07:26.986Z,3.43
2022-12-26T10:17:31.713Z,3.17
2022-12-26T10:27:41.097Z,3.20
2022-12-26T10:37:43.484Z,3.30
2022-12-26T10:47:50.643Z,2.90
2022-12-26T10:57:54.263Z,2.60
2022-12-26T11:08:05.662Z,2.77
2022-12-26T11:18:19.878Z,2.70
2022-12-26T11:28:29.923Z,2.43
2022-12-26T11:38:44.051Z,2.30
2022-12-26T11:48:51.412Z,2.43
2022-12-26T11:59:16.105Z,2.23
2022-12-26T12:09:41.684Z,1.90
2022-12-26T12:19:43.699Z,1.87
2022-12-26T12:30:23.098Z,1.80
2022-12-26T12:40:33.743Z,1.80
2022-12-26T12:50:56.750Z,3.00
2022-12-26T13:01:21.960Z,5.30
2022-12-26T13:11:36.934Z,2.07
2022-12-26T13:21:40.659Z,1.80
2022-12-26T13:31:42.770Z,2.27
2022-12-26T13:42:10.660Z,2.27
2022-12-26T13:52:12.282Z,2.20
2022-12-26T14:03:19.666Z,2.73
2022-12-26T14:13:52.962Z,2.40
2022-12-26T14:24:18.400Z,2.80
2022-12-26T14:34:48.885Z,2.50
2022-12-26T14:44:55.880Z,2.40
2022-12-26T14:54:57.679Z,2.60
2022-12-26T15:05:10.930Z,2.90
2022-12-26T15:15:32.537Z,2.57
2022-12-26T15:26:11.476Z,2.90
2022-12-26T15:36:36.906Z,2.87
2022-12-26T15:46:48.583Z,2.90
2022-12-26T15:57:07.856Z,2.77
2022-12-26T16:07:39.682Z,2.70
2022-12-26T16:17:45.094Z,2.43
2022-12-26T16:27:48.813Z,2.40
2022-12-26T16:37:52.826Z,2.63
2022-12-26T16:47:55.369Z,2.53
2022-12-26T16:57:59.559Z,2.43
2022-12-26T17:08:02.659Z,2.50
2022-12-26T17:18:41.644Z,2.10
2022-12-26T17:28:43.797Z,2.00
2022-12-26T17:38:45.898Z,1.40
2022-12-26T17:48:47.589Z,1.37
2022-12-26T17:58:50.037Z,0.90
2022-12-26T18:08:51.763Z,0.97
2022-12-26T18:18:53.708Z,0.70
2022-12-26T18:28:55.939Z,0.83
2022-12-26T18:38:57.842Z,1.33
2022-12-26T18:48:59.547Z,1.00
2022-12-26T18:59:01.609Z,0.90
2022-12-26T19:09:03.330Z,1.30
2022-12-26T19:19:05.329Z,1.33
2022-12-26T19:29:07.001Z,0.90
2022-12-26T19:39:08.800Z,0.87
2022-12-26T19:49:10.499Z,0.80
2022-12-26T19:59:12.595Z,1.30
2022-12-26T20:09:15.293Z,1.03
2022-12-26T20:19:16.975Z,0.90
2022-12-26T20:29:18.696Z,1.00
2022-12-26T20:39:21.052Z,1.00
2022-12-26T20:49:22.756Z,0.80
2022-12-26T20:59:24.452Z,1.10
2022-12-26T21:09:26.095Z,0.90
2022-12-26T21:19:29.525Z,1.20
2022-12-26T21:29:33.188Z,1.03
2022-12-26T21:39:36.098Z,1.20
2022-12-26T21:49:37.858Z,1.00
2022-12-26T21:59:57.957Z,1.00
2022-12-26T22:09:59.914Z,0.90
2022-12-26T22:20:01.545Z,1.00
2022-12-26T22:30:04.926Z,1.07
2022-12-26T22:40:07.144Z,0.90
2022-12-26T22:50:13.401Z,1.30
2022-12-26T23:00:15.360Z,1.20
2022-12-26T23:10:21.435Z,0.90
2022-12-26T23:20:45.443Z,1.10
2022-12-26T23:30:47.058Z,1.10
2022-12-26T23:40:48.676Z,0.83
2022-12-26T23:50:50.321Z,1.20
